Time;durP1;ratioP1;P1;durP2;ratioP2;P2;SDS_P1;SDS_P2;PMS_P1;PMS_P2;Temp;Humidity;BMP_temperature;BMP_pressure;BME280_temperature;BME280_humidity;BME280_pressure;Samples;Min_cycle;Max_cycle;Signal;HPM_P1;HPM_P2
2023/12/10 00:00:19;;;;;;;24.95;5.35;;;;;10.20;97330.00;;;;5034632;28;20038;-63
2023/12/10 00:02:45;;;;;;;24.83;5.50;;;;;10.30;97339.00;;;;5035369;28;20499;-63
2023/12/10 00:05:12;;;;;;;30.00;6.38;;;;;10.30;97348.00;;;;5034943;28;20439;-64
2023/12/10 00:07:39;;;;;;;34.83;5.70;;;;;10.30;97349.00;;;;5034159;28;20041;-64
2023/12/10 00:10:06;;;;;;;28.73;5.75;;;;;10.30;97354.00;;;;5035651;28;20045;-64
2023/12/10 00:12:33;;;;;;;23.75;5.00;;;;;10.30;97348.00;;;;5035534;28;20045;-63
2023/12/10 00:15:00;;;;;;;30.23;5.30;;;;;10.30;97361.00;;;;5034550;28;20053;-64
2023/12/10 00:17:26;;;;;;;25.13;6.20;;;;;10.30;97368.00;;;;5034916;28;20037;-62
2023/12/10 00:19:53;;;;;;;34.88;6.43;;;;;10.40;97364.00;;;;5035249;28;20132;-63
2023/12/10 00:22:20;;;;;;;21.30;5.30;;;;;10.30;97373.00;;;;5035483;28;20104;-63
2023/12/10 00:24:46;;;;;;;30.77;5.22;;;;;10.40;97378.00;;;;5034866;28;20049;-63
2023/12/10 00:27:13;;;;;;;29.27;5.45;;;;;10.40;97379.00;;;;5033610;28;20072;-64
2023/12/10 00:29:40;;;;;;;24.23;5.38;;;;;10.40;97381.00;;;;5035004;28;20111;-64
2023/12/10 00:32:07;;;;;;;31.42;5.88;;;;;10.40;97389.00;;;;5034821;28;20133;-64
2023/12/10 00:34:33;;;;;;;29.85;5.45;;;;;10.40;97387.00;;;;5034074;28;20116;-64
2023/12/10 00:37:00;;;;;;;33.13;6.70;;;;;10.40;97396.00;;;;5034506;28;20042;-64
2023/12/10 00:39:26;;;;;;;25.80;5.53;;;;;10.40;97395.00;;;;5034653;28;20054;-64
2023/12/10 00:41:53;;;;;;;30.55;5.65;;;;;10.40;97396.00;;;;5033593;28;20144;-62
2023/12/10 00:44:20;;;;;;;30.55;6.32;;;;;10.40;97398.00;;;;5034191;28;20052;-64
2023/12/10 00:46:46;;;;;;;34.00;6.47;;;;;10.40;97399.00;;;;5033287;28;20137;-64
2023/12/10 00:49:13;;;;;;;27.38;5.93;;;;;10.30;97410.00;;;;5034596;28;20128;-64
2023/12/10 00:51:39;;;;;;;31.42;6.18;;;;;10.30;97403.00;;;;5034541;28;20049;-63
2023/12/10 00:54:06;;;;;;;28.88;5.65;;;;;10.30;97416.00;;;;5033808;28;20053;-64
2023/12/10 00:56:34;;;;;;;34.92;7.07;;;;;10.30;97412.00;;;;5034360;28;20045;-64
2023/12/10 00:59:01;;;;;;;29.48;5.35;;;;;10.30;97421.00;;;;5033129;28;20045;-64
2023/12/10 01:01:27;;;;;;;29.08;5.90;;;;;10.30;97437.00;;;;5034294;28;20129;-64
2023/12/10 01:03:54;;;;;;;25.30;5.22;;;;;10.30;97432.00;;;;5033705;28;20421;-63
2023/12/10 01:06:21;;;;;;;30.90;5.63;;;;;10.30;97449.00;;;;5034103;28;20048;-64
2023/12/10 01:08:48;;;;;;;35.47;6.68;;;;;10.30;97471.00;;;;5034223;28;20053;-64
2023/12/10 01:11:14;;;;;;;26.65;5.97;;;;;10.30;97468.00;;;;5033941;28;20141;-64
2023/12/10 01:13:41;;;;;;;29.23;5.75;;;;;10.30;97469.00;;;;5033561;28;20080;-63
2023/12/10 01:16:08;;;;;;;26.33;5.97;;;;;10.30;97468.00;;;;5032732;28;20180;-64
2023/12/10 01:18:37;;;;;;;22.98;5.30;;;;;10.30;97472.00;;;;5033876;28;20056;-64
2023/12/10 01:21:09;;;;;;;30.25;5.88;;;;;10.40;97473.00;;;;5034537;28;20053;-64
2023/12/10 01:23:37;;;;;;;17.63;4.13;;;;;10.30;97473.00;;;;5034113;28;20045;-62
2023/12/10 01:26:06;;;;;;;22.70;4.13;;;;;10.30;97469.00;;;;5034262;28;20045;-64
2023/12/10 01:28:33;;;;;;;19.40;4.30;;;;;10.30;97473.00;;;;5033761;28;20568;-64
2023/12/10 01:31:00;;;;;;;25.80;4.75;;;;;10.30;97469.00;;;;5033682;28;20505;-64
2023/12/10 01:33:27;;;;;;;16.20;3.50;;;;;10.30;97476.00;;;;5032987;28;20057;-64
2023/12/10 01:35:54;;;;;;;21.55;3.75;;;;;10.30;97472.00;;;;5033572;28;20037;-64
2023/12/10 01:38:21;;;;;;;20.10;3.90;;;;;10.30;97491.00;;;;5033619;28;20041;-63
2023/12/10 01:40:48;;;;;;;21.33;4.70;;;;;10.30;97504.00;;;;5033521;28;20037;-64
2023/12/10 01:43:17;;;;;;;22.73;3.83;;;;;10.30;97531.00;;;;5033408;28;20111;-64
2023/12/10 01:45:49;;;;;;;27.10;4.85;;;;;10.10;97533.00;;;;5032756;28;20038;-64
2023/12/10 01:48:16;;;;;;;21.10;4.57;;;;;9.90;97542.00;;;;5033419;28;20048;-64
2023/12/10 01:50:44;;;;;;;17.52;3.90;;;;;9.70;97557.00;;;;5033347;28;20052;-63
2023/12/10 01:53:10;;;;;;;15.52;3.22;;;;;9.60;97568.00;;;;5033197;28;20544;-64
2023/12/10 01:55:37;;;;;;;18.95;3.92;;;;;9.50;97558.00;;;;5032605;28;20068;-64
2023/12/10 01:58:04;;;;;;;12.35;3.35;;;;;9.40;97563.00;;;;5033072;28;20033;-64
2023/12/10 02:00:32;;;;;;;17.95;3.65;;;;;9.40;97577.00;;;;5031736;28;20050;-64
2023/12/10 02:03:02;;;;;;;16.50;2.92;;;;;9.40;97578.00;;;;5031863;28;20076;-64
2023/12/10 02:05:29;;;;;;;16.58;3.70;;;;;9.40;97591.00;;;;5032445;28;20041;-64
2023/12/10 02:07:56;;;;;;;14.48;3.38;;;;;9.30;97580.00;;;;5032915;28;20042;-62
2023/12/10 02:10:22;;;;;;;13.43;3.42;;;;;9.20;97565.00;;;;5033022;28;20076;-64
2023/12/10 02:12:52;;;;;;;13.55;3.20;;;;;9.20;97566.00;;;;5032933;28;20069;-64
2023/12/10 02:15:19;;;;;;;16.50;3.13;;;;;9.20;97578.00;;;;5032148;28;20069;-63
2023/12/10 02:17:47;;;;;;;16.45;3.20;;;;;9.20;97574.00;;;;5032677;28;20518;-64
2023/12/10 02:20:16;;;;;;;13.85;3.10;;;;;9.20;97581.00;;;;5032866;28;20049;-64
2023/12/10 02:23:02;;;;;;;12.80;2.80;;;;;9.20;97590.00;;;;5032095;28;20041;-63
2023/12/10 02:25:37;;;;;;;18.73;3.35;;;;;9.10;97584.00;;;;5032087;28;20083;-64
2023/12/10 02:28:05;;;;;;;19.30;3.67;;;;;9.00;97592.00;;;;5032841;28;20060;-64
2023/12/10 02:30:33;;;;;;;19.13;3.78;;;;;9.00;97594.00;;;;5032601;28;20068;-64
2023/12/10 02:33:00;;;;;;;14.93;3.15;;;;;9.00;97584.00;;;;5032665;28;20042;-64
2023/12/10 02:35:27;;;;;;;16.70;3.70;;;;;9.00;97574.00;;;;5031855;28;20439;-64
2023/12/10 02:37:54;;;;;;;14.90;3.42;;;;;9.00;97576.00;;;;5032447;28;20064;-64
2023/12/10 02:40:21;;;;;;;15.80;4.00;;;;;9.00;97584.00;;;;5032507;28;20056;-63
2023/12/10 02:42:48;;;;;;;17.70;3.78;;;;;9.00;97575.00;;;;5032557;28;20049;-64
2023/12/10 02:45:15;;;;;;;22.05;3.40;;;;;9.10;97583.00;;;;5031804;28;20077;-63
2023/12/10 02:47:42;;;;;;;17.33;3.70;;;;;9.10;97576.00;;;;5032155;28;20061;-64
2023/12/10 02:50:09;;;;;;;25.08;3.63;;;;;9.20;97581.00;;;;5032604;28;20489;-64
2023/12/10 02:52:36;;;;;;;18.45;3.60;;;;;9.20;97602.00;;;;5032136;28;20045;-64
2023/12/10 02:55:04;;;;;;;27.00;4.68;;;;;9.20;97627.00;;;;5031683;28;20045;-63
2023/12/10 02:57:31;;;;;;;17.33;3.45;;;;;9.20;97622.00;;;;5032162;28;20061;-64
2023/12/10 02:59:58;;;;;;;18.65;3.97;;;;;9.10;97621.00;;;;5032108;28;20048;-64
2023/12/10 03:02:24;;;;;;;23.23;5.13;;;;;9.10;97615.00;;;;5032076;28;20124;-64
2023/12/10 03:04:51;;;;;;;20.55;4.50;;;;;9.00;97634.00;;;;5031521;28;20103;-64
2023/12/10 03:07:18;;;;;;;22.52;4.43;;;;;9.10;97632.00;;;;5030779;28;20041;-63
2023/12/10 03:09:45;;;;;;;25.40;4.20;;;;;9.10;97634.00;;;;5030878;28;20135;-64
2023/12/10 03:12:11;;;;;;;24.60;4.25;;;;;9.20;97635.00;;;;5032076;28;20057;-64
2023/12/10 03:14:38;;;;;;;23.05;5.32;;;;;9.20;97635.00;;;;5031293;28;20525;-64
2023/12/10 03:17:05;;;;;;;18.25;3.83;;;;;9.20;97635.00;;;;5030623;28;20617;-64
2023/12/10 03:19:31;;;;;;;26.52;4.82;;;;;9.30;97639.00;;;;5031920;28;20148;-64
2023/12/10 03:21:58;;;;;;;26.05;4.78;;;;;9.30;97633.00;;;;5031793;28;20132;-64
2023/12/10 03:24:24;;;;;;;21.25;4.00;;;;;9.30;97642.00;;;;5031334;28;20046;-64
2023/12/10 03:26:51;;;;;;;27.60;5.75;;;;;9.40;97651.00;;;;5032148;28;20053;-64
2023/12/10 03:29:17;;;;;;;17.23;3.88;;;;;9.40;97638.00;;;;5031874;28;20052;-64
2023/12/10 03:31:44;;;;;;;20.33;3.80;;;;;9.30;97635.00;;;;5031886;28;20056;-64
2023/12/10 03:34:11;;;;;;;23.95;4.15;;;;;9.40;97652.00;;;;5032662;28;20129;-64
2023/12/10 03:36:37;;;;;;;20.17;3.83;;;;;9.40;97641.00;;;;5035947;28;20072;-64
2023/12/10 03:39:04;;;;;;;22.33;4.15;;;;;9.40;97665.00;;;;5017996;28;20297;-64
2023/12/10 03:41:31;;;;;;;17.35;4.20;;;;;9.40;97660.00;;;;5035804;28;20208;-64
2023/12/10 03:43:57;;;;;;;17.55;3.70;;;;;9.40;97682.00;;;;5035029;28;20045;-64
2023/12/10 03:46:24;;;;;;;17.60;4.75;;;;;9.40;97680.00;;;;5035578;28;20053;-64
2023/12/10 03:48:51;;;;;;;23.20;3.75;;;;;9.40;97669.00;;;;5035683;28;20044;-63
2023/12/10 03:51:18;;;;;;;19.30;4.30;;;;;9.40;97685.00;;;;5035666;28;20049;-64
2023/12/10 03:53:45;;;;;;;17.17;3.83;;;;;9.50;97691.00;;;;5034991;28;20045;-63
2023/12/10 03:56:11;;;;;;;18.05;3.63;;;;;9.50;97689.00;;;;5035501;28;20045;-63
2023/12/10 03:58:38;;;;;;;25.70;4.03;;;;;9.50;97700.00;;;;5035391;28;20037;-61
2023/12/10 04:01:05;;;;;;;19.08;3.90;;;;;9.50;97699.00;;;;5035431;28;20050;-62
2023/12/10 04:03:31;;;;;;;23.50;4.25;;;;;9.50;97708.00;;;;5034728;28;20050;-61
2023/12/10 04:06:00;;;;;;;17.95;3.30;;;;;9.60;97714.00;;;;5034989;28;20543;-62
2023/12/10 04:08:27;;;;;;;23.27;3.78;;;;;9.60;97710.00;;;;5035207;28;20041;-62
2023/12/10 04:10:53;;;;;;;26.80;4.13;;;;;9.60;97713.00;;;;5035252;28;20045;-62
2023/12/10 04:13:20;;;;;;;16.00;4.05;;;;;9.60;97711.00;;;;5034967;28;20042;-64
2023/12/10 04:15:46;;;;;;;13.60;3.40;;;;;9.60;97718.00;;;;5034604;28;20123;-61
2023/12/10 04:18:14;;;;;;;16.98;3.97;;;;;9.60;97731.00;;;;5035017;28;20399;-63
2023/12/10 04:20:42;;;;;;;20.13;5.47;;;;;9.60;97724.00;;;;5035050;28;20548;-64
2023/12/10 04:23:09;;;;;;;22.33;4.50;;;;;9.60;97720.00;;;;5035021;28;20045;-64
2023/12/10 04:25:35;;;;;;;26.20;4.38;;;;;9.60;97736.00;;;;5034465;28;20053;-64
2023/12/10 04:28:03;;;;;;;22.58;3.88;;;;;9.60;97726.00;;;;5035419;28;20041;-63
2023/12/10 04:30:31;;;;;;;20.67;3.60;;;;;9.60;97721.00;;;;5034706;28;20529;-64
2023/12/10 04:32:57;;;;;;;19.95;4.00;;;;;9.60;97739.00;;;;5034854;28;20052;-62
2023/12/10 04:35:24;;;;;;;15.68;4.15;;;;;9.70;97728.00;;;;5034081;28;20045;-62
2023/12/10 04:37:51;;;;;;;17.55;4.15;;;;;9.70;97731.00;;;;5034689;28;20156;-62
2023/12/10 04:40:17;;;;;;;27.92;4.60;;;;;9.70;97730.00;;;;5033631;28;20387;-62
2023/12/10 04:42:44;;;;;;;15.35;3.40;;;;;9.70;97720.00;;;;5033237;28;20049;-65
2023/12/10 04:45:10;;;;;;;19.30;4.05;;;;;9.70;97719.00;;;;5033421;28;20561;-62
2023/12/10 04:47:37;;;;;;;18.30;3.72;;;;;9.70;97733.00;;;;5033151;28;20107;-62
2023/12/10 04:50:04;;;;;;;22.48;3.92;;;;;9.60;97718.00;;;;5033424;28;20091;-62
2023/12/10 04:52:32;;;;;;;19.88;4.13;;;;;9.70;97726.00;;;;5034420;28;20129;-62
2023/12/10 04:54:59;;;;;;;19.35;3.70;;;;;9.70;97736.00;;;;5032682;28;20065;-63
2023/12/10 04:57:26;;;;;;;21.33;4.60;;;;;9.60;97734.00;;;;5034139;28;20049;-64
2023/12/10 04:59:53;;;;;;;23.83;4.00;;;;;9.60;97738.00;;;;5034333;28;20037;-64
2023/12/10 05:02:19;;;;;;;21.73;4.07;;;;;9.70;97734.00;;;;5034292;28;20049;-64
2023/12/10 05:04:46;;;;;;;13.40;3.28;;;;;9.70;97748.00;;;;5034095;28;20073;-64
2023/12/10 05:07:12;;;;;;;18.90;3.97;;;;;9.60;97747.00;;;;5034494;28;20617;-64
2023/12/10 05:09:40;;;;;;;21.00;3.75;;;;;9.60;97750.00;;;;5032978;28;20129;-63
2023/12/10 05:12:07;;;;;;;18.25;4.32;;;;;9.60;97759.00;;;;5033967;28;20486;-64
2023/12/10 05:14:33;;;;;;;18.35;3.97;;;;;9.60;97759.00;;;;5033425;28;20045;-64
2023/12/10 05:17:00;;;;;;;17.80;3.50;;;;;9.60;97767.00;;;;5033945;28;20137;-64
2023/12/10 05:19:27;;;;;;;17.88;4.57;;;;;9.60;97769.00;;;;5034048;28;20055;-64
2023/12/10 05:21:53;;;;;;;21.73;4.07;;;;;9.60;97790.00;;;;5032671;28;20052;-64
2023/12/10 05:24:21;;;;;;;17.90;3.75;;;;;9.60;97773.00;;;;5033133;28;20056;-64
2023/12/10 05:26:47;;;;;;;19.33;4.22;;;;;9.60;97769.00;;;;5033724;28;20494;-64
2023/12/10 05:29:14;;;;;;;15.95;3.33;;;;;9.70;97771.00;;;;5033794;28;20514;-64
2023/12/10 05:31:40;;;;;;;24.50;4.57;;;;;9.60;97765.00;;;;5033818;28;20482;-64
2023/12/10 05:34:07;;;;;;;16.48;3.17;;;;;9.60;97782.00;;;;5033305;28;20125;-65
2023/12/10 05:36:34;;;;;;;18.30;2.97;;;;;9.60;97771.00;;;;5032731;28;20107;-64
2023/12/10 05:39:00;;;;;;;21.70;3.72;;;;;9.60;97784.00;;;;5032233;28;20041;-64
2023/12/10 05:41:27;;;;;;;18.33;3.42;;;;;9.50;97782.00;;;;5033529;28;20053;-64
2023/12/10 05:43:53;;;;;;;19.60;3.35;;;;;9.50;97793.00;;;;5032951;28;20132;-64
2023/12/10 05:46:21;;;;;;;18.38;3.90;;;;;9.50;97790.00;;;;5033443;28;20049;-64
2023/12/10 05:48:47;;;;;;;14.80;3.20;;;;;9.50;97800.00;;;;5033401;28;20065;-64
2023/12/10 05:51:15;;;;;;;17.20;3.42;;;;;9.50;97794.00;;;;5033362;28;20042;-63
2023/12/10 05:53:42;;;;;;;24.38;3.50;;;;;9.50;97809.00;;;;5032685;28;20660;-64
2023/12/10 05:56:09;;;;;;;19.83;3.72;;;;;9.50;97789.00;;;;5031319;28;20045;-64
2023/12/10 05:58:35;;;;;;;26.40;4.32;;;;;9.50;97798.00;;;;5033022;28;20045;-64
2023/12/10 06:01:02;;;;;;;21.50;3.80;;;;;9.50;97818.00;;;;5032091;28;20057;-64
2023/12/10 06:03:29;;;;;;;20.27;4.18;;;;;9.50;97817.00;;;;5032527;28;20068;-64
2023/12/10 06:05:55;;;;;;;21.63;3.72;;;;;9.50;97816.00;;;;5033155;28;20061;-64
2023/12/10 06:08:22;;;;;;;26.98;5.05;;;;;9.50;97811.00;;;;5031880;28;20087;-64
2023/12/10 06:10:49;;;;;;;21.95;4.57;;;;;9.50;97832.00;;;;5031861;28;20075;-63
2023/12/10 06:13:15;;;;;;;17.13;3.90;;;;;9.40;97827.00;;;;5033341;28;20513;-64
2023/12/10 06:15:44;;;;;;;22.13;3.85;;;;;9.40;97842.00;;;;5033700;28;20045;-64
2023/12/10 06:18:10;;;;;;;23.20;4.03;;;;;9.40;97833.00;;;;5032806;28;20060;-64
2023/12/10 06:20:37;;;;;;;23.08;4.25;;;;;9.30;97834.00;;;;5033759;28;20049;-64
2023/12/10 06:23:04;;;;;;;19.02;3.72;;;;;9.30;97836.00;;;;5032082;28;20049;-62
2023/12/10 06:25:30;;;;;;;20.55;3.70;;;;;9.30;97845.00;;;;5032689;28;20041;-61
2023/12/10 06:27:57;;;;;;;17.05;3.88;;;;;9.30;97838.00;;;;5033270;28;20051;-61
2023/12/10 06:30:23;;;;;;;9.80;3.00;;;;;9.20;97845.00;;;;5031883;28;20049;-62
2023/12/10 06:32:50;;;;;;;16.38;2.92;;;;;9.20;97844.00;;;;5031963;28;20060;-61
2023/12/10 06:35:21;;;;;;;19.55;3.53;;;;;9.20;97852.00;;;;5032521;28;20049;-61
2023/12/10 06:37:47;;;;;;;13.13;2.70;;;;;9.20;97860.00;;;;5033072;28;20048;-61
2023/12/10 06:40:14;;;;;;;19.42;4.15;;;;;9.20;97861.00;;;;5033513;28;20041;-62
2023/12/10 06:42:41;;;;;;;19.10;4.03;;;;;9.20;97879.00;;;;5032187;28;20049;-61
2023/12/10 06:45:08;;;;;;;18.45;3.80;;;;;9.20;97877.00;;;;5032566;28;20049;-61
2023/12/10 06:47:34;;;;;;;15.93;3.75;;;;;9.30;97885.00;;;;5033168;28;20049;-62
2023/12/10 06:50:01;;;;;;;23.85;3.53;;;;;9.20;97883.00;;;;5032956;28;20045;-61
2023/12/10 06:52:27;;;;;;;22.13;3.63;;;;;9.20;97879.00;;;;5032815;28;20053;-61
2023/12/10 06:54:54;;;;;;;16.00;3.83;;;;;9.30;97895.00;;;;5031732;28;20406;-61
2023/12/10 06:57:26;;;;;;;15.70;3.42;;;;;9.30;97906.00;;;;5032152;28;20125;-61
2023/12/10 06:59:52;;;;;;;17.35;3.35;;;;;9.30;97908.00;;;;5032120;28;20524;-62
2023/12/10 07:02:19;;;;;;;19.80;3.60;;;;;9.30;97916.00;;;;5030806;28;20437;-61
2023/12/10 07:04:45;;;;;;;18.42;3.33;;;;;9.40;97905.00;;;;5030358;28;20060;-61
2023/12/10 07:07:12;;;;;;;14.80;2.97;;;;;9.30;97917.00;;;;5031897;28;20070;-63
2023/12/10 07:09:39;;;;;;;14.80;3.38;;;;;9.40;97915.00;;;;5031983;28;20048;-62
2023/12/10 07:12:05;;;;;;;20.05;3.55;;;;;9.40;97925.00;;;;5032048;28;20068;-61
2023/12/10 07:14:32;;;;;;;14.05;4.10;;;;;9.50;97931.00;;;;5030153;28;20529;-62
2023/12/10 07:16:58;;;;;;;13.25;3.15;;;;;9.50;97923.00;;;;5031891;28;20042;-63
2023/12/10 07:19:25;;;;;;;14.45;3.17;;;;;9.50;97931.00;;;;5032300;28;20037;-62
2023/12/10 07:21:52;;;;;;;14.98;2.97;;;;;9.50;97928.00;;;;5031878;28;20115;-61
2023/12/10 07:24:20;;;;;;;10.88;2.80;;;;;9.50;97938.00;;;;5031114;28;20099;-62
2023/12/10 07:26:47;;;;;;;16.95;3.22;;;;;9.60;97949.00;;;;5031803;28;20107;-64
2023/12/10 07:29:14;;;;;;;16.80;3.28;;;;;9.60;97935.00;;;;5031957;28;20038;-61
2023/12/10 07:31:40;;;;;;;17.50;3.05;;;;;9.60;97936.00;;;;5030511;28;20045;-62
2023/12/10 07:34:08;;;;;;;20.48;3.47;;;;;9.70;97944.00;;;;5030088;28;20049;-63
2023/12/10 07:36:34;;;;;;;25.65;5.25;;;;;9.70;97954.00;;;;5031856;28;20037;-64
2023/12/10 07:39:07;;;;;;;19.25;4.38;;;;;9.70;97955.00;;;;5030752;28;20037;-64
2023/12/10 07:41:34;;;;;;;13.27;3.65;;;;;9.70;97956.00;;;;5031877;28;20046;-64
2023/12/10 07:44:00;;;;;;;17.88;3.78;;;;;9.80;97960.00;;;;5029936;28;20104;-64
2023/12/10 07:46:27;;;;;;;14.90;3.33;;;;;9.80;97961.00;;;;5031701;28;20383;-64
2023/12/10 07:48:53;;;;;;;17.33;3.92;;;;;9.90;97971.00;;;;5031659;28;20380;-63
2023/12/10 07:51:20;;;;;;;25.08;4.85;;;;;9.90;97959.00;;;;5032080;28;20424;-64
2023/12/10 07:53:47;;;;;;;19.38;3.72;;;;;9.90;97965.00;;;;5031828;28;20080;-64
2023/12/10 07:56:14;;;;;;;16.00;3.45;;;;;10.00;97972.00;;;;5036535;28;20077;-64
2023/12/10 07:58:41;;;;;;;20.42;4.50;;;;;10.00;97979.00;;;;5037874;28;20128;-64
2023/12/10 08:01:09;;;;;;;14.55;3.53;;;;;10.00;97971.00;;;;5035372;28;20051;-64
2023/12/10 08:03:36;;;;;;;19.88;3.92;;;;;10.00;97977.00;;;;5034048;28;20080;-64
2023/12/10 08:06:03;;;;;;;15.60;3.40;;;;;10.00;97976.00;;;;5034363;28;20116;-64
2023/12/10 08:08:30;;;;;;;12.32;3.38;;;;;10.10;97978.00;;;;5036420;28;20038;-63
2023/12/10 08:10:56;;;;;;;14.00;3.28;;;;;10.10;97969.00;;;;5045741;28;20144;-64
2023/12/10 08:13:23;;;;;;;17.95;3.80;;;;;10.20;97982.00;;;;5046250;28;20069;-61
2023/12/10 08:15:50;;;;;;;16.33;3.35;;;;;10.20;97980.00;;;;5045898;28;20076;-63
2023/12/10 08:18:16;;;;;;;15.10;3.47;;;;;10.10;97966.00;;;;5046212;28;20566;-63
2023/12/10 08:20:43;;;;;;;14.90;3.45;;;;;10.20;97983.00;;;;5046914;28;20045;-64
2023/12/10 08:23:10;;;;;;;15.20;3.25;;;;;10.20;97997.00;;;;5050022;28;20072;-64
2023/12/10 08:25:37;;;;;;;15.63;4.55;;;;;10.10;97993.00;;;;5051569;28;20046;-64
2023/12/10 08:28:03;;;;;;;11.73;3.00;;;;;10.10;97985.00;;;;5050512;28;20048;-63
2023/12/10 08:30:30;;;;;;;15.93;3.65;;;;;10.10;98004.00;;;;5050299;28;20064;-64
2023/12/10 08:32:57;;;;;;;15.85;3.22;;;;;10.20;98007.00;;;;5050954;28;20053;-64
2023/12/10 08:35:23;;;;;;;16.48;3.30;;;;;10.20;97999.00;;;;5043512;28;20053;-65
2023/12/10 08:37:50;;;;;;;16.25;4.30;;;;;10.10;98007.00;;;;5038812;28;20069;-64
2023/12/10 08:40:16;;;;;;;18.27;3.78;;;;;10.20;98023.00;;;;5037931;28;20041;-64
2023/12/10 08:42:43;;;;;;;17.60;3.95;;;;;10.20;98022.00;;;;5036824;28;20049;-64
2023/12/10 08:45:11;;;;;;;16.52;3.75;;;;;10.20;98016.00;;;;5037064;28;20053;-64
2023/12/10 08:47:38;;;;;;;16.00;3.58;;;;;10.20;98005.00;;;;5033708;28;20051;-64
2023/12/10 08:50:05;;;;;;;22.50;3.78;;;;;10.20;98017.00;;;;5033582;28;20045;-64
2023/12/10 08:52:32;;;;;;;17.10;3.33;;;;;10.30;98028.00;;;;5034544;28;20048;-64
2023/12/10 08:55:01;;;;;;;19.70;3.97;;;;;10.30;98017.00;;;;5034010;28;20052;-63
2023/12/10 08:57:27;;;;;;;16.02;3.40;;;;;10.30;98036.00;;;;5033175;28;20568;-64
2023/12/10 09:00:00;;;;;;;14.27;3.45;;;;;10.30;98032.00;;;;5034231;28;20037;-64
2023/12/10 09:02:27;;;;;;;15.98;3.47;;;;;10.40;98025.00;;;;5034384;28;20057;-65
2023/12/10 09:04:54;;;;;;;12.88;2.78;;;;;10.40;98037.00;;;;5033697;28;20050;-64
2023/12/10 09:07:21;;;;;;;17.63;3.83;;;;;10.40;98052.00;;;;5034232;28;20041;-64
2023/12/10 09:09:48;;;;;;;17.77;4.15;;;;;10.40;98054.00;;;;5033375;28;20053;-64
2023/12/10 09:12:26;;;;;;;20.42;3.63;;;;;10.50;98054.00;;;;5033109;28;20045;-64
2023/12/10 09:14:54;;;;;;;19.70;3.42;;;;;10.50;98060.00;;;;5033479;28;20041;-64
2023/12/10 09:17:21;;;;;;;17.38;4.00;;;;;10.50;98056.00;;;;5032570;28;20494;-64
2023/12/10 09:19:48;;;;;;;21.25;3.45;;;;;10.50;98063.00;;;;5033863;28;20045;-63
2023/12/10 09:22:15;;;;;;;9.52;2.95;;;;;10.60;98075.00;;;;5033862;28;20060;-65
2023/12/10 09:24:42;;;;;;;21.25;4.35;;;;;10.60;98079.00;;;;5033541;28;20116;-63
2023/12/10 09:27:08;;;;;;;24.10;5.70;;;;;10.60;98084.00;;;;5032537;28;20049;-63
2023/12/10 09:29:38;;;;;;;15.75;3.78;;;;;10.70;98087.00;;;;5033781;28;20048;-63
2023/12/10 09:32:06;;;;;;;17.30;3.88;;;;;10.70;98094.00;;;;5033654;28;20041;-63
2023/12/10 09:34:33;;;;;;;21.20;3.50;;;;;10.80;98092.00;;;;5033040;28;20107;-62
2023/12/10 09:37:00;;;;;;;20.30;3.15;;;;;10.80;98095.00;;;;5033484;28;20052;-63
2023/12/10 09:39:27;;;;;;;16.77;4.53;;;;;10.70;98099.00;;;;5033504;28;20490;-62
2023/12/10 09:41:54;;;;;;;16.23;3.47;;;;;10.80;98096.00;;;;5033499;28;20041;-61
2023/12/10 09:44:21;;;;;;;12.95;4.07;;;;;10.90;98099.00;;;;5032948;28;20041;-61
2023/12/10 09:46:48;;;;;;;11.00;3.20;;;;;10.90;98108.00;;;;5033387;28;20479;-63
2023/12/10 09:49:15;;;;;;;18.30;4.07;;;;;10.90;98110.00;;;;5033045;28;20033;-61
2023/12/10 09:51:42;;;;;;;13.88;3.25;;;;;10.90;98105.00;;;;5033291;28;20482;-64
2023/12/10 09:54:09;;;;;;;16.80;3.70;;;;;10.90;98095.00;;;;5032779;28;20513;-63
2023/12/10 09:56:35;;;;;;;18.55;3.67;;;;;10.90;98102.00;;;;5032285;28;20553;-63
2023/12/10 09:59:02;;;;;;;18.65;4.30;;;;;10.80;98092.00;;;;5033885;28;20041;-61
2023/12/10 10:01:29;;;;;;;20.05;4.43;;;;;10.80;98114.00;;;;5033942;28;20045;-63
2023/12/10 10:03:55;;;;;;;14.88;3.50;;;;;10.70;98092.00;;;;5032957;28;20499;-63
2023/12/10 10:06:22;;;;;;;24.08;4.70;;;;;10.70;98086.00;;;;5033569;28;20561;-60
2023/12/10 10:08:49;;;;;;;20.65;4.22;;;;;10.70;98083.00;;;;5031969;28;20159;-63
2023/12/10 10:11:16;;;;;;;20.75;3.60;;;;;10.80;98081.00;;;;5031849;28;20585;-63
2023/12/10 10:13:53;;;;;;;16.55;4.13;;;;;10.80;98098.00;;;;5032411;28;20057;-63
2023/12/10 10:16:19;;;;;;;21.80;3.75;;;;;10.80;98095.00;;;;5031600;28;20048;-63
2023/12/10 10:18:49;;;;;;;27.35;5.72;;;;;10.80;98091.00;;;;5032961;28;20446;-64
2023/12/10 10:21:16;;;;;;;18.10;3.35;;;;;10.80;98095.00;;;;5031579;28;20506;-64
2023/12/10 10:23:43;;;;;;;18.33;3.75;;;;;10.80;98085.00;;;;5030851;28;20103;-64
2023/12/10 10:26:11;;;;;;;17.10;3.85;;;;;10.90;98089.00;;;;5032704;28;20081;-64
2023/12/10 10:28:38;;;;;;;17.15;4.65;;;;;10.90;98084.00;;;;5031421;28;20053;-64
2023/12/10 10:31:05;;;;;;;10.82;3.83;;;;;10.90;98084.00;;;;5032954;28;20045;-65
2023/12/10 10:33:32;;;;;;;14.98;3.78;;;;;10.90;98082.00;;;;5031872;28;20123;-64
2023/12/10 10:36:00;;;;;;;21.63;4.07;;;;;10.90;98098.00;;;;5032593;28;20045;-64
2023/12/10 10:38:29;;;;;;;23.15;5.35;;;;;10.90;98094.00;;;;5032628;28;20069;-64
2023/12/10 10:41:01;;;;;;;21.75;4.20;;;;;11.00;98092.00;;;;5033301;28;20449;-62
2023/12/10 10:43:27;;;;;;;18.33;4.10;;;;;11.10;98102.00;;;;5031471;28;20053;-63
2023/12/10 10:45:58;;;;;;;14.60;3.65;;;;;11.10;98090.00;;;;5015245;28;20184;-65
2023/12/10 10:48:26;;;;;;;26.92;4.63;;;;;11.10;98087.00;;;;5031200;28;20046;-65
2023/12/10 10:50:54;;;;;;;19.65;5.22;;;;;11.10;98078.00;;;;5032321;28;20043;-65
2023/12/10 10:53:22;;;;;;;16.50;4.00;;;;;11.10;98071.00;;;;5030831;28;20054;-65
2023/12/10 10:55:49;;;;;;;19.98;5.63;;;;;11.10;98073.00;;;;5032361;28;20051;-65
2023/12/10 10:58:27;;;;;;;19.65;4.13;;;;;11.30;98068.00;;;;5031029;28;20045;-65
2023/12/10 11:00:55;;;;;;;24.50;4.45;;;;;11.40;98070.00;;;;5032213;28;20041;-65
2023/12/10 11:03:26;;;;;;;22.33;4.55;;;;;11.30;98079.00;;;;5031795;28;20049;-61
2023/12/10 11:06:00;;;;;;;18.17;4.68;;;;;11.40;98073.00;;;;5031113;28;20045;-64
2023/12/10 11:08:32;;;;;;;15.15;4.93;;;;;11.40;98070.00;;;;5031348;28;20564;-63
2023/12/10 11:11:00;;;;;;;20.30;4.63;;;;;11.40;98068.00;;;;5032360;28;20475;-64
2023/12/10 11:13:42;;;;;;;19.45;4.22;;;;;11.30;98069.00;;;;5032133;28;20092;-62
2023/12/10 11:16:09;;;;;;;20.55;4.32;;;;;11.10;98065.00;;;;5032158;28;20065;-64
2023/12/10 11:18:57;;;;;;;20.30;4.40;;;;;11.10;98080.00;;;;5031912;28;20490;-63
2023/12/10 11:21:24;;;;;;;16.75;4.03;;;;;11.10;98076.00;;;;5032039;28;20045;-62
2023/12/10 11:23:51;;;;;;;17.38;4.28;;;;;11.10;98078.00;;;;5030471;28;20052;-64
2023/12/10 11:26:18;;;;;;;22.83;4.47;;;;;11.00;98076.00;;;;5032334;28;20053;-64
2023/12/10 11:28:44;;;;;;;16.63;4.47;;;;;11.00;98076.00;;;;5032110;28;20392;-64
2023/12/10 11:31:12;;;;;;;16.63;3.53;;;;;10.90;98083.00;;;;5032073;28;20120;-64
2023/12/10 11:33:40;;;;;;;25.52;4.88;;;;;10.90;98083.00;;;;5031587;28;20056;-64
2023/12/10 11:36:08;;;;;;;17.52;3.90;;;;;10.80;98084.00;;;;5033843;28;20053;-65
2023/12/10 11:38:55;;;;;;;20.20;5.30;;;;;10.80;98084.00;;;;5055529;28;20045;-66
2023/12/10 11:41:27;;;;;;;21.27;5.03;;;;;10.80;98080.00;;;;5056491;28;20584;-66
2023/12/10 11:43:53;;;;;;;18.35;4.20;;;;;10.80;98081.00;;;;5055526;28;20085;-63
2023/12/10 11:46:24;;;;;;;20.42;4.13;;;;;10.80;98095.00;;;;5053120;28;20046;-62
2023/12/10 11:49:06;;;;;;;18.70;4.38;;;;;10.70;98077.00;;;;5051132;28;20556;-62
2023/12/10 11:51:38;;;;;;;13.68;3.08;;;;;10.70;98074.00;;;;5050739;28;20052;-62
2023/12/10 11:54:06;;;;;;;26.55;4.30;;;;;10.70;98077.00;;;;5053182;28;20079;-63
2023/12/10 11:56:33;;;;;;;20.55;5.03;;;;;10.70;98083.00;;;;5057845;28;20061;-63
2023/12/10 11:59:00;;;;;;;19.10;3.85;;;;;10.70;98083.00;;;;5058013;28;20100;-63
2023/12/10 12:01:27;;;;;;;22.33;3.80;;;;;10.70;98086.00;;;;5059013;28;20033;-65
2023/12/10 12:03:54;;;;;;;17.38;3.72;;;;;10.70;98084.00;;;;5060730;28;20085;-67
2023/12/10 12:06:21;;;;;;;16.42;3.50;;;;;10.70;98075.00;;;;5060862;28;20050;-65
2023/12/10 12:08:48;;;;;;;19.65;4.00;;;;;10.70;98081.00;;;;5043985;28;20185;-67
2023/12/10 12:11:14;;;;;;;17.65;4.57;;;;;10.70;98073.00;;;;5061176;28;20037;-63
2023/12/10 12:13:44;;;;;;;27.23;4.43;;;;;10.70;98077.00;;;;5060834;28;20039;-65